Disentis, Switzerland
Current Conditions -  °F | °C
As of 2:50 PM on Wednesday 26 Nov 2014 (Local Time) from LSZC Reporting Station
Overcast Overcast  
Wind Chill: 50°   Ceiling: 1100
Heat Index: 50°   Visibility: 5mi
Dew Point: 46°   Wind: 5mph
Humidity: 87%   Direction: 70°ENE
Pressure: 29.91"   Gusts: NA
Location:  46.7°N, 8.84°E
Report Text: LSZC 261350Z 07004KT 8000 OVC011 10/08 Q1013 SVFR
Loading
Personal Weather Stations






























Interactive Weather Map New forecast layout! Learn more

10-Day Weather Forecast

Advertisements
Track Severe Weather on mobile